createdAt,value
2017-08-01T00:00:22.855Z,986.17
2017-08-01T00:01:20.117Z,985.95
2017-08-01T00:02:17.416Z,985.97
2017-08-01T00:03:14.682Z,986.10
2017-08-01T00:04:12.076Z,986.19
2017-08-01T00:05:09.313Z,986.27
2017-08-01T00:06:06.619Z,986.33
2017-08-01T00:07:04.017Z,986.32
2017-08-01T00:08:01.356Z,986.36
2017-08-01T00:08:58.605Z,986.39
2017-08-01T00:09:55.878Z,986.44
2017-08-01T00:10:53.141Z,986.54
2017-08-01T00:11:50.503Z,986.47
2017-08-01T00:12:47.773Z,986.43
2017-08-01T00:13:45.149Z,986.35
2017-08-01T00:14:42.463Z,986.36
2017-08-01T00:15:39.769Z,986.39
2017-08-01T00:16:37.004Z,986.40
2017-08-01T00:17:34.420Z,986.22
2017-08-01T00:18:31.695Z,986.11
2017-08-01T00:19:28.958Z,986.02
2017-08-01T00:20:26.232Z,986.08
2017-08-01T00:21:23.562Z,986.00
2017-08-01T00:22:20.819Z,985.90
2017-08-01T00:23:18.146Z,985.96
2017-08-01T00:24:15.433Z,985.94
2017-08-01T00:25:12.719Z,985.95
2017-08-01T00:26:10.001Z,985.99
2017-08-01T00:27:07.265Z,985.86
2017-08-01T00:28:04.582Z,985.74
2017-08-01T00:29:01.956Z,985.59
2017-08-01T00:29:59.193Z,985.40
2017-08-01T00:30:56.545Z,985.20
2017-08-01T00:31:53.823Z,985.08
2017-08-01T00:32:51.123Z,984.88
2017-08-01T00:33:48.402Z,984.90
2017-08-01T00:34:45.843Z,984.87
2017-08-01T00:35:43.136Z,984.86
2017-08-01T00:36:40.510Z,984.83
2017-08-01T00:37:37.769Z,984.85
2017-08-01T00:38:35.057Z,984.94
2017-08-01T00:39:32.317Z,984.95
2017-08-01T00:40:29.672Z,984.91
2017-08-01T00:41:26.899Z,984.88
2017-08-01T00:42:24.220Z,984.98
2017-08-01T00:43:21.533Z,985.11
2017-08-01T00:44:18.843Z,985.12
2017-08-01T00:45:16.140Z,985.27
2017-08-01T00:46:13.415Z,985.37
2017-08-01T00:47:10.680Z,985.37
2017-08-01T00:48:08.340Z,985.46
2017-08-01T00:49:05.570Z,985.46
2017-08-01T00:50:02.954Z,985.50
2017-08-01T00:51:00.221Z,985.54
2017-08-01T00:51:57.517Z,985.47
2017-08-01T00:52:54.795Z,985.52
2017-08-01T00:53:52.097Z,985.49
2017-08-01T00:54:49.320Z,985.49
2017-08-01T00:55:46.657Z,985.42
2017-08-01T00:56:43.921Z,985.41
2017-08-01T00:57:41.193Z,985.32
2017-08-01T00:58:38.468Z,985.25
2017-08-01T00:59:35.942Z,985.27
2017-08-01T01:00:33.197Z,985.23
2017-08-01T01:01:30.532Z,985.25
2017-08-01T01:02:27.785Z,985.34
2017-08-01T01:03:25.110Z,985.38
2017-08-01T01:04:22.387Z,985.35
2017-08-01T01:05:19.757Z,985.39
2017-08-01T01:06:17.049Z,985.28
2017-08-01T01:07:14.434Z,985.28
2017-08-01T01:08:11.718Z,985.38
2017-08-01T01:09:09.050Z,985.36
2017-08-01T01:10:06.329Z,985.37
2017-08-01T01:11:03.613Z,985.43
2017-08-01T01:12:00.877Z,985.29
2017-08-01T01:12:58.227Z,985.15
2017-08-01T01:13:55.537Z,985.04
2017-08-01T01:14:52.865Z,984.90
2017-08-01T01:15:50.121Z,984.74
2017-08-01T01:16:47.464Z,984.49
2017-08-01T01:17:44.733Z,984.46
2017-08-01T01:18:42.040Z,984.48
2017-08-01T01:19:39.316Z,984.51
2017-08-01T01:20:36.622Z,984.45
2017-08-01T01:21:33.861Z,984.34
2017-08-01T01:22:31.289Z,984.27
2017-08-01T01:23:28.684Z,984.06
2017-08-01T01:24:26.024Z,983.81
2017-08-01T01:25:23.297Z,983.50
2017-08-01T01:26:20.595Z,983.48
2017-08-01T01:27:17.854Z,983.79
2017-08-01T01:28:15.176Z,984.06
2017-08-01T01:29:12.481Z,984.35
2017-08-01T01:30:11.553Z,984.46
2017-08-01T01:31:08.820Z,984.66
2017-08-01T01:32:06.123Z,984.70
2017-08-01T01:33:03.401Z,984.67
2017-08-01T01:34:00.699Z,984.62
2017-08-01T01:34:57.958Z,984.56
2017-08-01T01:35:55.234Z,984.49
2017-08-01T01:36:52.628Z,984.52
2017-08-01T01:37:49.951Z,984.54
2017-08-01T01:38:47.209Z,984.50
2017-08-01T01:39:44.582Z,984.61
2017-08-01T01:40:41.902Z,984.54
2017-08-01T01:41:39.237Z,984.56
2017-08-01T01:42:36.494Z,984.57
2017-08-01T01:43:33.817Z,984.68
2017-08-01T01:44:31.093Z,984.68
2017-08-01T01:45:29.060Z,984.78
2017-08-01T01:46:26.322Z,984.86
2017-08-01T01:47:23.627Z,984.89
2017-08-01T01:48:20.946Z,984.90
2017-08-01T01:49:18.285Z,984.97
2017-08-01T01:50:15.552Z,984.99
2017-08-01T01:51:12.840Z,985.05
2017-08-01T01:52:10.108Z,985.20
2017-08-01T01:53:07.416Z,985.34
2017-08-01T01:54:04.671Z,985.37
2017-08-01T01:55:01.999Z,985.46
2017-08-01T01:55:59.305Z,985.46
2017-08-01T01:56:56.678Z,985.56
2017-08-01T01:57:53.914Z,985.59
2017-08-01T01:58:51.215Z,985.57
2017-08-01T01:59:48.584Z,985.61
2017-08-01T02:00:45.910Z,985.74
2017-08-01T02:01:43.213Z,985.80
2017-08-01T02:02:40.484Z,985.82
2017-08-01T02:03:37.733Z,985.95
2017-08-01T02:04:35.073Z,985.98
2017-08-01T02:05:32.340Z,985.77
2017-08-01T02:06:29.656Z,985.48
2017-08-01T02:07:26.916Z,985.04
2017-08-01T02:08:24.211Z,984.76
2017-08-01T02:09:21.497Z,984.81
2017-08-01T02:10:18.829Z,985.50
2017-08-01T02:11:16.174Z,986.16
2017-08-01T02:12:13.554Z,986.50
2017-08-01T02:13:10.841Z,986.49
2017-08-01T02:14:08.165Z,986.09
2017-08-01T02:15:05.480Z,986.00
2017-08-01T02:16:02.771Z,986.08
2017-08-01T02:17:00.059Z,986.08
2017-08-01T02:17:57.336Z,985.99
2017-08-01T02:18:54.609Z,986.00
2017-08-01T02:19:51.941Z,986.06
2017-08-01T02:20:49.239Z,986.28
2017-08-01T02:21:46.583Z,986.52
2017-08-01T02:22:43.840Z,986.60
2017-08-01T02:23:41.103Z,986.76
2017-08-01T02:24:38.353Z,986.65
2017-08-01T02:25:35.628Z,986.50
2017-08-01T02:26:32.869Z,986.50
2017-08-01T02:27:30.213Z,986.67
2017-08-01T02:28:27.504Z,986.74
2017-08-01T02:29:24.895Z,986.78
2017-08-01T02:30:22.143Z,986.81
2017-08-01T02:31:19.450Z,986.69
2017-08-01T02:32:16.692Z,986.62
2017-08-01T02:33:13.967Z,986.40
2017-08-01T02:34:11.236Z,986.32
2017-08-01T02:35:08.596Z,986.23
2017-08-01T02:36:05.918Z,985.91
2017-08-01T02:37:03.205Z,985.62
2017-08-01T02:38:00.469Z,985.31
2017-08-01T02:38:57.851Z,985.13
2017-08-01T02:39:55.138Z,984.86
2017-08-01T02:40:52.412Z,984.59
2017-08-01T02:41:49.683Z,984.43
2017-08-01T02:42:46.961Z,984.15
2017-08-01T02:43:44.209Z,983.78
2017-08-01T02:44:41.498Z,983.53
2017-08-01T02:45:38.773Z,983.46
2017-08-01T02:46:36.065Z,983.22
2017-08-01T02:47:33.305Z,983.11
2017-08-01T02:48:30.573Z,982.99
2017-08-01T02:49:27.831Z,982.88
2017-08-01T02:50:25.101Z,982.97
2017-08-01T02:51:22.406Z,983.03
2017-08-01T02:52:19.676Z,983.12
2017-08-01T02:53:16.937Z,983.09
2017-08-01T02:54:14.211Z,983.10
2017-08-01T02:55:11.469Z,983.20
2017-08-01T02:56:08.793Z,983.16
2017-08-01T02:57:06.069Z,983.03
2017-08-01T02:58:03.399Z,982.63
2017-08-01T02:59:00.740Z,982.22
2017-08-01T02:59:58.036Z,981.80
2017-08-01T03:00:55.293Z,981.45
2017-08-01T03:01:52.593Z,981.35
2017-08-01T03:02:49.894Z,981.26
2017-08-01T03:03:47.176Z,981.16
2017-08-01T03:04:44.428Z,981.21
2017-08-01T03:05:41.837Z,981.43
2017-08-01T03:06:39.188Z,981.69
2017-08-01T03:07:36.464Z,981.99
2017-08-01T03:08:33.708Z,982.41
2017-08-01T03:09:31.047Z,983.03
2017-08-01T03:10:28.306Z,983.72
2017-08-01T03:11:25.601Z,984.37
2017-08-01T03:12:22.890Z,984.85
2017-08-01T03:13:20.199Z,985.11
2017-08-01T03:14:17.484Z,985.16
2017-08-01T03:15:14.752Z,985.08
2017-08-01T03:16:12.060Z,984.95
2017-08-01T03:17:09.566Z,984.93
2017-08-01T03:18:06.873Z,984.99
2017-08-01T03:19:04.225Z,985.16
2017-08-01T03:20:01.473Z,985.24
2017-08-01T03:20:58.808Z,985.15
2017-08-01T03:21:56.106Z,985.06
2017-08-01T03:22:53.428Z,985.04
2017-08-01T03:23:50.665Z,984.94
2017-08-01T03:24:47.956Z,985.04
2017-08-01T03:25:45.268Z,985.09
2017-08-01T03:26:42.583Z,985.12
2017-08-01T03:27:39.986Z,985.19
2017-08-01T03:28:37.370Z,985.16
2017-08-01T03:29:34.764Z,985.13
2017-08-01T03:30:32.156Z,985.03
2017-08-01T03:31:29.540Z,984.95
2017-08-01T03:32:26.985Z,985.00
2017-08-01T03:33:24.297Z,984.91
2017-08-01T03:34:21.571Z,984.88
2017-08-01T03:35:18.889Z,984.83
2017-08-01T03:36:16.205Z,984.86
2017-08-01T03:37:13.505Z,984.95
2017-08-01T03:38:10.764Z,984.99
2017-08-01T03:39:08.088Z,984.98
2017-08-01T03:40:05.427Z,985.05
2017-08-01T03:41:02.667Z,985.04
2017-08-01T03:41:59.999Z,985.01
2017-08-01T03:42:57.288Z,984.95
2017-08-01T03:43:54.673Z,985.07
2017-08-01T03:44:52.090Z,985.17
2017-08-01T03:45:49.508Z,985.21
2017-08-01T03:46:46.815Z,985.21
2017-08-01T03:47:44.185Z,985.34
2017-08-01T03:48:41.497Z,985.40
2017-08-01T03:49:39.121Z,985.42
2017-08-01T03:50:36.576Z,985.47
2017-08-01T03:51:33.872Z,985.45
2017-08-01T03:52:31.182Z,985.44
2017-08-01T03:53:28.498Z,985.46
2017-08-01T03:54:25.790Z,985.51
2017-08-01T03:55:23.093Z,985.49
2017-08-01T03:56:20.365Z,985.46
2017-08-01T03:57:17.885Z,985.34
2017-08-01T03:58:15.126Z,985.39
2017-08-01T03:59:12.406Z,985.36
2017-08-01T04:00:09.654Z,985.34
2017-08-01T04:01:06.921Z,985.27
2017-08-01T04:02:04.193Z,985.22
2017-08-01T04:03:01.503Z,985.20
2017-08-01T04:03:58.838Z,985.18
2017-08-01T04:04:56.159Z,985.19
2017-08-01T04:05:53.397Z,985.08
2017-08-01T04:06:50.661Z,985.16
2017-08-01T04:07:47.905Z,985.21
2017-08-01T04:08:45.207Z,985.22
2017-08-01T04:09:42.489Z,985.22
2017-08-01T04:10:39.768Z,985.21
2017-08-01T04:11:37.036Z,985.14
2017-08-01T04:12:34.312Z,985.09
2017-08-01T04:13:31.573Z,985.06
2017-08-01T04:14:28.886Z,984.98
2017-08-01T04:15:26.178Z,984.92
2017-08-01T04:16:23.545Z,984.86
2017-08-01T04:17:20.796Z,984.67
2017-08-01T04:18:18.100Z,984.51
2017-08-01T04:19:15.370Z,984.52
2017-08-01T04:20:12.620Z,984.37
2017-08-01T04:21:10.292Z,984.20
2017-08-01T04:22:07.634Z,984.22
2017-08-01T04:23:04.912Z,984.18
2017-08-01T04:24:02.218Z,984.24
2017-08-01T04:24:59.465Z,984.28
2017-08-01T04:25:56.853Z,984.24
2017-08-01T04:26:54.168Z,984.19
2017-08-01T04:27:51.524Z,984.21
2017-08-01T04:28:48.790Z,984.36
2017-08-01T04:29:46.096Z,984.50
2017-08-01T04:30:43.412Z,984.75
2017-08-01T04:31:40.718Z,984.90
2017-08-01T04:32:37.964Z,984.99
2017-08-01T04:33:35.306Z,985.14
2017-08-01T04:34:32.556Z,985.17
2017-08-01T04:35:29.822Z,985.20
2017-08-01T04:36:27.113Z,985.20
2017-08-01T04:37:24.428Z,985.04
2017-08-01T04:38:21.685Z,985.05
2017-08-01T04:39:19.016Z,984.93
2017-08-01T04:40:16.258Z,984.85
2017-08-01T04:41:13.560Z,984.80
2017-08-01T04:42:10.794Z,984.81
2017-08-01T04:43:08.062Z,984.83
2017-08-01T04:44:05.344Z,984.85
2017-08-01T04:45:02.657Z,984.83
2017-08-01T04:45:59.965Z,984.87
2017-08-01T04:46:57.264Z,985.07
2017-08-01T04:47:54.576Z,985.15
2017-08-01T04:48:51.842Z,985.29
2017-08-01T04:49:49.105Z,985.38
2017-08-01T04:50:46.410Z,985.55
2017-08-01T04:51:43.775Z,985.61
2017-08-01T04:52:41.156Z,985.60
2017-08-01T04:53:38.434Z,985.57
2017-08-01T04:54:35.733Z,985.51
2017-08-01T04:55:33.106Z,985.49
2017-08-01T04:56:30.417Z,985.43
2017-08-01T04:57:27.774Z,985.57
2017-08-01T04:58:25.065Z,985.59
2017-08-01T04:59:22.350Z,985.59
2017-08-01T05:00:19.617Z,985.61
2017-08-01T05:01:16.892Z,985.68
2017-08-01T05:02:14.159Z,985.63
2017-08-01T05:03:11.414Z,985.64
2017-08-01T05:04:09.325Z,985.61
2017-08-01T05:05:06.716Z,985.64
2017-08-01T05:06:04.020Z,985.72
2017-08-01T05:07:01.324Z,985.73
2017-08-01T05:07:58.686Z,985.78
2017-08-01T05:08:55.944Z,985.84
2017-08-01T05:09:53.357Z,985.79
2017-08-01T05:10:50.680Z,985.90
2017-08-01T05:11:47.940Z,985.86
2017-08-01T05:12:45.196Z,985.92
2017-08-01T05:13:42.538Z,986.12
2017-08-01T05:14:39.801Z,986.17
2017-08-01T05:15:37.064Z,986.11
2017-08-01T05:16:34.317Z,986.19
2017-08-01T05:17:31.604Z,986.23
2017-08-01T05:18:28.855Z,986.34
2017-08-01T05:19:26.145Z,986.36
2017-08-01T05:20:23.400Z,986.38
2017-08-01T05:21:20.668Z,986.36
2017-08-01T05:22:18.007Z,986.44
2017-08-01T05:23:15.416Z,986.51
2017-08-01T05:24:12.643Z,986.62
2017-08-01T05:25:09.953Z,986.77
2017-08-01T05:26:07.208Z,986.89
2017-08-01T05:27:04.530Z,987.00
2017-08-01T05:28:01.810Z,986.91
2017-08-01T05:28:59.097Z,986.82
2017-08-01T05:29:56.412Z,986.79
2017-08-01T05:30:53.696Z,986.78
2017-08-01T05:31:50.974Z,986.67
2017-08-01T05:32:48.277Z,986.68
2017-08-01T05:33:45.536Z,986.63
2017-08-01T05:34:42.791Z,986.62
2017-08-01T05:35:40.070Z,986.59
2017-08-01T05:36:37.331Z,986.65
2017-08-01T05:37:34.632Z,986.65
2017-08-01T05:38:31.892Z,986.62
2017-08-01T05:39:29.133Z,986.49
2017-08-01T05:40:26.465Z,986.41
2017-08-01T05:41:23.729Z,986.18
2017-08-01T05:42:21.001Z,986.07
2017-08-01T05:43:18.247Z,986.30
2017-08-01T05:44:15.517Z,986.48
2017-08-01T05:45:12.835Z,986.74
2017-08-01T05:46:10.174Z,986.81
2017-08-01T05:47:07.426Z,986.81
2017-08-01T05:48:04.679Z,986.76
2017-08-01T05:49:01.927Z,986.84
2017-08-01T05:49:59.192Z,986.81
2017-08-01T05:50:56.460Z,986.86
2017-08-01T05:51:53.769Z,986.79
2017-08-01T05:52:51.040Z,986.88
2017-08-01T05:53:48.328Z,986.83
2017-08-01T05:54:45.569Z,986.83
2017-08-01T05:55:42.844Z,986.92
2017-08-01T05:56:40.091Z,986.92
2017-08-01T05:57:37.384Z,986.90
2017-08-01T05:58:34.656Z,986.82
2017-08-01T05:59:31.964Z,986.78
2017-08-01T06:00:29.221Z,986.70
2017-08-01T06:01:26.501Z,986.54
2017-08-01T06:02:23.780Z,986.51
2017-08-01T06:03:21.109Z,986.35
2017-08-01T06:04:18.364Z,986.26
2017-08-01T06:05:15.632Z,986.17
2017-08-01T06:06:12.886Z,986.11
2017-08-01T06:07:10.172Z,986.09
2017-08-01T06:08:07.422Z,986.02
2017-08-01T06:09:04.716Z,985.79
2017-08-01T06:10:01.991Z,985.70
2017-08-01T06:10:59.406Z,985.57
2017-08-01T06:11:56.655Z,985.58
2017-08-01T06:12:53.987Z,985.81
2017-08-01T06:13:51.254Z,986.03
2017-08-01T06:14:48.540Z,986.25
2017-08-01T06:15:47.912Z,986.32
2017-08-01T06:16:45.199Z,986.38
2017-08-01T06:17:42.520Z,986.38
2017-08-01T06:18:39.758Z,986.28
2017-08-01T06:19:37.185Z,986.24
2017-08-01T06:20:34.461Z,986.10
2017-08-01T06:21:31.757Z,985.82
2017-08-01T06:22:29.011Z,985.42
2017-08-01T06:23:26.328Z,985.20
2017-08-01T06:24:23.597Z,985.24
2017-08-01T06:25:20.892Z,985.34
2017-08-01T06:26:18.248Z,985.38
2017-08-01T06:27:17.572Z,985.35
2017-08-01T06:28:14.819Z,985.42
2017-08-01T06:29:12.089Z,985.53
2017-08-01T06:30:09.369Z,985.72
2017-08-01T06:31:06.704Z,985.71
2017-08-01T06:32:04.041Z,985.80
2017-08-01T06:33:01.513Z,986.03
2017-08-01T06:33:58.898Z,986.09
2017-08-01T06:34:56.167Z,986.37
2017-08-01T06:35:53.436Z,986.79
2017-08-01T06:36:50.877Z,987.17
2017-08-01T06:37:48.148Z,987.38
2017-08-01T06:38:45.438Z,987.36
2017-08-01T06:39:42.760Z,987.34
2017-08-01T06:40:42.215Z,987.19
2017-08-01T06:41:39.520Z,986.94
2017-08-01T06:42:36.886Z,986.77
2017-08-01T06:43:34.148Z,986.60
2017-08-01T06:44:31.521Z,986.52
2017-08-01T06:45:28.865Z,986.56
2017-08-01T06:46:26.268Z,986.73
2017-08-01T06:47:23.571Z,986.73
2017-08-01T06:48:20.885Z,986.93
2017-08-01T06:49:18.153Z,987.03
2017-08-01T06:50:15.494Z,987.10
2017-08-01T06:51:12.820Z,987.26
2017-08-01T06:52:10.163Z,987.42
2017-08-01T06:53:07.512Z,987.46
2017-08-01T06:54:04.855Z,987.40
2017-08-01T06:55:02.141Z,987.51
2017-08-01T06:55:59.552Z,987.54
2017-08-01T06:56:56.796Z,987.59
2017-08-01T06:57:54.232Z,987.70
2017-08-01T06:58:51.496Z,987.74
2017-08-01T06:59:48.834Z,987.76
2017-08-01T07:00:46.157Z,987.77
2017-08-01T07:01:43.553Z,987.80
2017-08-01T07:02:40.858Z,987.83
2017-08-01T07:03:38.136Z,987.97
2017-08-01T07:04:35.367Z,988.16
2017-08-01T07:05:32.709Z,988.10
2017-08-01T07:06:30.013Z,987.91
2017-08-01T07:07:27.343Z,987.65
2017-08-01T07:08:24.694Z,987.50
2017-08-01T07:09:21.980Z,987.62
2017-08-01T07:10:19.236Z,987.79
2017-08-01T07:11:16.548Z,987.84
2017-08-01T07:12:13.876Z,988.01
2017-08-01T07:13:11.193Z,988.08
2017-08-01T07:14:10.520Z,988.20
2017-08-01T07:15:07.780Z,988.32
2017-08-01T07:16:05.072Z,988.41
2017-08-01T07:17:02.387Z,988.60
2017-08-01T07:17:59.675Z,988.75
2017-08-01T07:18:56.955Z,988.94
2017-08-01T07:19:54.193Z,989.09
2017-08-01T07:20:51.566Z,989.28
2017-08-01T07:21:48.858Z,989.33
2017-08-01T07:22:46.248Z,989.46
2017-08-01T07:23:43.518Z,989.45
2017-08-01T07:24:40.800Z,989.51
2017-08-01T07:25:38.073Z,989.36
2017-08-01T07:26:35.378Z,989.35
2017-08-01T07:27:32.643Z,989.31
2017-08-01T07:28:29.988Z,989.36
2017-08-01T07:29:27.281Z,989.40
2017-08-01T07:30:24.577Z,989.26
2017-08-01T07:31:21.826Z,989.14
2017-08-01T07:32:19.113Z,989.05
2017-08-01T07:33:16.380Z,989.03
2017-08-01T07:34:13.637Z,988.89
2017-08-01T07:35:10.882Z,988.55
2017-08-01T07:36:08.178Z,988.44
2017-08-01T07:37:05.465Z,988.25
2017-08-01T07:38:02.931Z,988.08
2017-08-01T07:39:00.218Z,987.71
2017-08-01T07:39:57.484Z,987.18
2017-08-01T07:40:54.786Z,986.64
2017-08-01T07:41:52.096Z,986.29
2017-08-01T07:42:49.346Z,986.14
2017-08-01T07:43:46.752Z,985.90
2017-08-01T07:44:44.008Z,985.67
2017-08-01T07:45:41.389Z,985.58
2017-08-01T07:46:38.657Z,985.43
2017-08-01T07:47:41.151Z,985.34
2017-08-01T07:48:38.457Z,985.34
2017-08-01T07:49:35.737Z,985.50
2017-08-01T07:50:33.008Z,985.73
2017-08-01T07:51:30.293Z,985.70
2017-08-01T07:52:27.595Z,985.57
2017-08-01T07:53:24.848Z,985.61
2017-08-01T07:54:22.142Z,985.65
2017-08-01T07:55:19.478Z,985.79
2017-08-01T07:56:16.749Z,985.95
2017-08-01T07:57:14.067Z,986.01
2017-08-01T07:58:11.417Z,986.22
2017-08-01T07:59:08.742Z,986.30
2017-08-01T08:00:06.016Z,986.44
2017-08-01T08:01:03.290Z,986.65
2017-08-01T08:02:00.610Z,986.66
2017-08-01T08:02:57.904Z,986.86
2017-08-01T08:03:55.227Z,987.08
2017-08-01T08:04:52.486Z,987.21
2017-08-01T08:05:49.789Z,987.28
2017-08-01T08:06:47.063Z,987.44
2017-08-01T08:07:44.408Z,987.66
2017-08-01T08:08:41.652Z,987.75
2017-08-01T08:09:38.952Z,987.82
2017-08-01T08:10:36.281Z,987.71
2017-08-01T08:11:33.596Z,987.65
2017-08-01T08:12:30.868Z,987.55
2017-08-01T08:13:28.173Z,987.33
2017-08-01T08:14:25.500Z,987.28
2017-08-01T08:15:22.757Z,987.22
2017-08-01T08:16:20.020Z,987.30
2017-08-01T08:17:17.305Z,987.36
2017-08-01T08:18:14.569Z,987.29
2017-08-01T08:19:11.892Z,987.29
2017-08-01T08:20:09.168Z,987.21
2017-08-01T08:21:06.454Z,987.09
2017-08-01T08:22:03.693Z,986.98
2017-08-01T08:23:00.987Z,986.82
2017-08-01T08:23:58.222Z,986.71
2017-08-01T08:24:55.542Z,986.60
2017-08-01T08:25:52.788Z,986.40
2017-08-01T08:26:50.084Z,986.33
2017-08-01T08:27:47.372Z,986.29
2017-08-01T08:28:44.707Z,986.21
2017-08-01T08:29:41.984Z,986.11
2017-08-01T08:30:39.298Z,986.12
2017-08-01T08:31:36.621Z,986.09
2017-08-01T08:32:33.905Z,986.09
2017-08-01T08:33:31.184Z,986.09
2017-08-01T08:34:28.659Z,986.10
2017-08-01T08:35:25.945Z,986.00
2017-08-01T08:36:23.213Z,985.97
2017-08-01T08:37:20.545Z,985.77
2017-08-01T08:38:17.844Z,985.63
2017-08-01T08:39:15.198Z,985.73
2017-08-01T08:40:12.492Z,985.73
2017-08-01T08:41:09.752Z,985.67
2017-08-01T08:42:07.153Z,985.66
2017-08-01T08:43:04.434Z,985.63
2017-08-01T08:44:01.764Z,985.83
2017-08-01T08:44:59.045Z,985.79
2017-08-01T08:45:56.565Z,985.85
2017-08-01T08:46:53.831Z,985.89
2017-08-01T08:47:51.142Z,985.93
2017-08-01T08:48:48.472Z,985.93
2017-08-01T08:49:45.933Z,985.98
2017-08-01T08:50:43.353Z,985.95
2017-08-01T08:51:40.664Z,986.00
2017-08-01T08:52:37.948Z,985.98
2017-08-01T08:53:35.534Z,986.01
2017-08-01T08:54:32.933Z,985.95
2017-08-01T08:55:30.305Z,985.85
2017-08-01T08:56:27.592Z,985.74
2017-08-01T08:57:24.887Z,985.82
2017-08-01T08:58:22.242Z,986.00
2017-08-01T08:59:19.557Z,986.18
2017-08-01T09:00:16.824Z,986.19
2017-08-01T09:01:14.273Z,986.06
2017-08-01T09:02:11.540Z,986.13
2017-08-01T09:03:08.796Z,986.25
2017-08-01T09:04:06.142Z,986.21
2017-08-01T09:05:03.574Z,986.20
2017-08-01T09:06:00.907Z,985.99
2017-08-01T09:06:58.225Z,985.91
2017-08-01T09:07:55.525Z,985.94
2017-08-01T09:08:52.892Z,986.01
2017-08-01T09:09:50.179Z,986.05
2017-08-01T09:10:47.476Z,986.06
2017-08-01T09:11:44.751Z,986.06
2017-08-01T09:12:42.038Z,986.00
2017-08-01T09:13:39.351Z,986.11
2017-08-01T09:14:36.640Z,986.07
2017-08-01T09:15:33.969Z,985.97
2017-08-01T09:16:31.258Z,985.91
2017-08-01T09:17:28.553Z,985.95
2017-08-01T09:18:25.871Z,986.08
2017-08-01T09:19:23.133Z,986.12
2017-08-01T09:20:20.478Z,986.08
2017-08-01T09:21:17.794Z,986.08
2017-08-01T09:22:15.104Z,986.21
2017-08-01T09:23:12.401Z,986.23
2017-08-01T09:24:09.744Z,986.25
2017-08-01T09:25:07.049Z,986.28
2017-08-01T09:26:04.366Z,986.27
2017-08-01T09:27:01.601Z,986.42
2017-08-01T09:27:58.874Z,986.38
2017-08-01T09:28:56.158Z,986.50
2017-08-01T09:29:53.435Z,986.65
2017-08-01T09:30:50.769Z,986.73
2017-08-01T09:31:48.101Z,986.78
2017-08-01T09:32:45.412Z,986.72
2017-08-01T09:33:42.773Z,986.66
2017-08-01T09:34:40.030Z,986.72
2017-08-01T09:35:37.309Z,986.76
2017-08-01T09:36:34.664Z,986.66
2017-08-01T09:37:31.988Z,986.73
2017-08-01T09:38:29.240Z,986.84
2017-08-01T09:39:26.501Z,986.66
2017-08-01T09:40:23.761Z,986.89
2017-08-01T09:41:21.065Z,986.91
2017-08-01T09:42:18.336Z,986.99
2017-08-01T09:43:15.772Z,987.01
2017-08-01T09:44:13.073Z,987.10
2017-08-01T09:45:10.462Z,987.19
2017-08-01T09:46:07.765Z,987.20
2017-08-01T09:47:05.122Z,987.33
2017-08-01T09:48:02.478Z,987.50
2017-08-01T09:48:59.821Z,987.61
2017-08-01T09:49:57.072Z,987.77
2017-08-01T09:50:54.416Z,987.79
2017-08-01T09:51:51.889Z,987.93
2017-08-01T09:52:49.213Z,987.90
2017-08-01T09:53:46.533Z,987.98
2017-08-01T09:54:43.872Z,987.91
2017-08-01T09:55:41.216Z,988.05
2017-08-01T09:56:38.542Z,987.97
2017-08-01T09:57:35.793Z,988.10
2017-08-01T09:58:33.048Z,988.02
2017-08-01T09:59:30.275Z,988.11
2017-08-01T10:00:27.646Z,988.23
2017-08-01T10:01:24.964Z,988.29
2017-08-01T10:02:22.278Z,988.30
2017-08-01T10:03:19.545Z,988.33
2017-08-01T10:04:16.877Z,988.41
2017-08-01T10:05:14.125Z,988.36
2017-08-01T10:06:11.412Z,988.40
2017-08-01T10:07:08.676Z,988.33
2017-08-01T10:08:05.961Z,988.38
2017-08-01T10:09:03.209Z,988.37
2017-08-01T10:10:00.468Z,988.40
2017-08-01T10:10:57.731Z,988.39
2017-08-01T10:11:55.039Z,988.44
2017-08-01T10:12:52.285Z,988.51
2017-08-01T10:13:49.567Z,988.50
2017-08-01T10:14:46.802Z,988.60
2017-08-01T10:15:44.152Z,988.64
2017-08-01T10:16:41.461Z,988.65
2017-08-01T10:17:38.793Z,988.75
2017-08-01T10:18:36.048Z,988.74
2017-08-01T10:19:33.312Z,988.89
2017-08-01T10:20:30.563Z,989.03
2017-08-01T10:21:27.856Z,989.06
2017-08-01T10:22:25.117Z,989.12
2017-08-01T10:23:22.413Z,989.26
2017-08-01T10:24:19.686Z,989.20
2017-08-01T10:25:17.092Z,989.17
2017-08-01T10:26:14.351Z,989.26
2017-08-01T10:27:11.689Z,989.39
2017-08-01T10:28:08.995Z,989.28
2017-08-01T10:29:06.255Z,989.27
2017-08-01T10:30:03.524Z,989.15
2017-08-01T10:31:00.888Z,989.16
2017-08-01T10:31:58.138Z,989.04
2017-08-01T10:32:55.477Z,988.91
2017-08-01T10:33:52.733Z,988.77
2017-08-01T10:34:50.022Z,988.63
2017-08-01T10:35:47.284Z,988.58
2017-08-01T10:36:44.552Z,988.46
2017-08-01T10:37:41.822Z,988.38
2017-08-01T10:38:39.089Z,988.24
2017-08-01T10:39:36.333Z,988.19
2017-08-01T10:40:33.605Z,988.22
2017-08-01T10:41:30.848Z,988.28
2017-08-01T10:42:28.162Z,988.28
2017-08-01T10:43:25.440Z,988.30
2017-08-01T10:44:22.746Z,988.22
2017-08-01T10:45:19.991Z,988.25
2017-08-01T10:46:17.257Z,988.27
2017-08-01T10:47:15.739Z,988.31
2017-08-01T10:48:13.073Z,988.40
2017-08-01T10:49:10.305Z,988.39
2017-08-01T10:50:07.603Z,988.32
2017-08-01T10:51:04.872Z,988.29
2017-08-01T10:52:02.270Z,988.30
2017-08-01T10:52:59.659Z,988.29
2017-08-01T10:53:59.121Z,988.35
2017-08-01T10:54:56.384Z,988.40
2017-08-01T10:55:53.680Z,988.37
2017-08-01T10:56:51.000Z,988.50
2017-08-01T10:57:48.277Z,988.62
2017-08-01T10:58:45.543Z,988.82
2017-08-01T10:59:42.845Z,988.91
2017-08-01T11:00:40.131Z,988.90
2017-08-01T11:01:37.409Z,988.96
2017-08-01T11:02:34.684Z,989.05
2017-08-01T11:03:31.984Z,989.03
2017-08-01T11:04:29.232Z,989.09
2017-08-01T11:05:26.512Z,988.95
2017-08-01T11:06:23.745Z,989.00
2017-08-01T11:07:21.019Z,988.89
2017-08-01T11:08:18.322Z,988.86
2017-08-01T11:09:15.625Z,988.81
2017-08-01T11:10:12.933Z,988.74
2017-08-01T11:11:10.234Z,988.56
2017-08-01T11:12:07.500Z,988.34
2017-08-01T11:13:04.810Z,988.26
2017-08-01T11:14:02.077Z,988.05
2017-08-01T11:14:59.367Z,987.49
2017-08-01T11:15:56.618Z,986.87
2017-08-01T11:16:53.897Z,986.39
2017-08-01T11:17:51.129Z,986.23
2017-08-01T11:18:48.414Z,985.96
2017-08-01T11:19:45.684Z,985.72
2017-08-01T11:20:42.955Z,985.35
2017-08-01T11:21:40.213Z,984.80
2017-08-01T11:22:37.481Z,984.56
2017-08-01T11:23:34.741Z,984.44
2017-08-01T11:24:32.037Z,984.40
2017-08-01T11:25:29.287Z,984.34
2017-08-01T11:26:26.547Z,984.28
2017-08-01T11:27:23.784Z,984.36
2017-08-01T11:28:21.140Z,984.52
2017-08-01T11:29:18.406Z,984.67
2017-08-01T11:30:15.669Z,984.71
2017-08-01T11:31:12.933Z,984.92
2017-08-01T11:32:10.186Z,985.03
2017-08-01T11:33:07.428Z,985.23
2017-08-01T11:34:04.776Z,985.42
2017-08-01T11:35:02.063Z,985.54
2017-08-01T11:35:59.359Z,985.65
2017-08-01T11:36:56.654Z,985.71
2017-08-01T11:37:53.977Z,985.82
2017-08-01T11:38:51.236Z,985.89
2017-08-01T11:39:48.624Z,986.02
2017-08-01T11:40:45.880Z,986.05
2017-08-01T11:41:43.192Z,986.17
2017-08-01T11:42:40.456Z,986.28
2017-08-01T11:43:37.718Z,986.37
2017-08-01T11:44:34.986Z,986.44
2017-08-01T11:45:32.264Z,986.55
2017-08-01T11:46:29.563Z,986.60
2017-08-01T11:47:26.857Z,986.62
2017-08-01T11:48:24.136Z,986.62
2017-08-01T11:49:21.453Z,986.72
2017-08-01T11:50:18.749Z,986.70
2017-08-01T11:51:16.054Z,986.74
2017-08-01T11:52:13.300Z,986.88
2017-08-01T11:53:10.588Z,987.02
2017-08-01T11:54:07.853Z,987.04
2017-08-01T11:55:05.214Z,987.16